createdAt,value
2023-01-03T00:00:41.136Z,53.17
2023-01-03T00:02:43.051Z,53.11
2023-01-03T00:04:49.411Z,53.15
2023-01-03T00:06:53.198Z,53.22
2023-01-03T00:08:56.020Z,53.13
2023-01-03T00:10:58.435Z,53.27
2023-01-03T00:13:00.674Z,53.30
2023-01-03T00:15:03.225Z,53.35
2023-01-03T00:17:06.404Z,53.28
2023-01-03T00:19:10.476Z,53.36
2023-01-03T00:21:13.840Z,53.32
2023-01-03T00:23:17.012Z,53.39
2023-01-03T00:25:18.721Z,53.21
2023-01-03T00:27:36.881Z,53.41
2023-01-03T00:29:38.672Z,53.40
2023-01-03T00:31:41.309Z,53.14
2023-01-03T00:33:43.084Z,53.58
2023-01-03T00:35:47.215Z,53.30
2023-01-03T00:37:48.858Z,53.60
2023-01-03T00:39:50.662Z,53.52
2023-01-03T00:41:52.646Z,53.41
2023-01-03T00:43:56.506Z,53.37
2023-01-03T00:45:58.864Z,53.33
2023-01-03T00:48:00.469Z,53.21
2023-01-03T00:50:02.199Z,53.35
2023-01-03T00:52:03.873Z,53.35
2023-01-03T00:54:09.189Z,53.47
2023-01-03T00:56:14.037Z,53.42
2023-01-03T00:58:16.071Z,53.51
2023-01-03T01:00:17.683Z,53.48
2023-01-03T01:02:20.732Z,53.57
2023-01-03T01:04:28.790Z,53.46
2023-01-03T01:06:33.872Z,53.53
2023-01-03T01:08:38.379Z,53.58
2023-01-03T01:11:01.768Z,53.52
2023-01-03T01:13:03.705Z,53.55
2023-01-03T01:15:06.512Z,53.53
2023-01-03T01:17:11.597Z,53.64
2023-01-03T01:19:13.664Z,53.52
2023-01-03T01:21:20.138Z,53.64
2023-01-03T01:23:21.778Z,53.53
2023-01-03T01:28:43.131Z,53.58
2023-01-03T01:33:56.604Z,53.68
2023-01-03T01:35:58.374Z,53.61
2023-01-03T01:37:59.930Z,53.88
2023-01-03T01:40:05.157Z,53.54
2023-01-03T01:42:31.098Z,53.58
2023-01-03T01:45:03.226Z,53.66
2023-01-03T01:47:25.831Z,53.52
2023-01-03T01:49:29.391Z,53.54
2023-01-03T01:51:34.009Z,53.68
2023-01-03T01:53:37.914Z,53.62
2023-01-03T01:55:52.068Z,53.25
2023-01-03T01:57:54.019Z,53.56
2023-01-03T01:59:59.732Z,53.46
2023-01-03T02:02:01.603Z,53.57
2023-01-03T02:04:08.629Z,53.57
2023-01-03T02:06:15.194Z,53.51
2023-01-03T02:08:17.547Z,53.43
2023-01-03T02:10:32.554Z,53.57
2023-01-03T02:13:08.336Z,53.39
2023-01-03T02:15:49.515Z,53.40
2023-01-03T02:18:07.140Z,53.49
2023-01-03T02:20:46.825Z,53.60
2023-01-03T02:23:12.371Z,53.58
2023-01-03T02:25:35.065Z,53.66
2023-01-03T02:27:59.259Z,53.53
2023-01-03T02:30:24.847Z,53.69
2023-01-03T02:32:51.276Z,53.74
2023-01-03T02:34:58.669Z,53.65
2023-01-03T02:37:14.582Z,53.77
2023-01-03T02:39:45.246Z,53.71
2023-01-03T02:42:30.087Z,53.85
2023-01-03T02:44:35.833Z,53.69
2023-01-03T02:46:47.246Z,53.82
2023-01-03T02:49:05.964Z,53.81
2023-01-03T02:51:24.569Z,53.87
2023-01-03T02:53:33.292Z,53.84
2023-01-03T02:55:38.830Z,53.76
2023-01-03T02:57:47.837Z,53.99
2023-01-03T02:59:54.236Z,53.77
2023-01-03T03:01:55.942Z,53.99
2023-01-03T03:04:01.274Z,53.86
2023-01-03T03:06:23.199Z,53.70
2023-01-03T03:08:26.294Z,53.83
2023-01-03T03:10:50.371Z,53.93
2023-01-03T03:13:13.225Z,53.93
2023-01-03T03:15:17.626Z,54.00
2023-01-03T03:17:28.895Z,54.40
2023-01-03T03:20:15.830Z,54.01
2023-01-03T03:22:58.535Z,54.05
2023-01-03T03:25:10.798Z,54.07
2023-01-03T03:27:34.477Z,54.10
2023-01-03T03:29:36.152Z,54.25
2023-01-03T03:31:44.246Z,53.99
2023-01-03T03:34:07.212Z,54.01
2023-01-03T03:36:17.057Z,54.04
2023-01-03T03:38:26.371Z,54.02
2023-01-03T03:40:51.349Z,53.84
2023-01-03T03:43:58.063Z,53.94
2023-01-03T03:46:14.736Z,53.98
2023-01-03T03:48:52.455Z,53.81
2023-01-03T03:51:17.565Z,53.96
2023-01-03T03:53:25.181Z,53.88
2023-01-03T03:55:34.648Z,53.87
2023-01-03T03:57:43.275Z,54.02
2023-01-03T03:59:50.481Z,53.84
2023-01-03T04:01:56.176Z,53.99
2023-01-03T04:04:03.703Z,54.01
2023-01-03T04:06:22.606Z,54.01
2023-01-03T04:08:24.927Z,54.27
2023-01-03T04:10:28.330Z,53.82
2023-01-03T04:12:31.958Z,53.79
2023-01-03T04:14:33.625Z,53.80
2023-01-03T04:16:39.869Z,53.92
2023-01-03T04:18:41.466Z,53.90
2023-01-03T04:20:45.947Z,53.78
2023-01-03T04:22:49.812Z,53.67
2023-01-03T04:24:56.856Z,53.77
2023-01-03T04:27:01.147Z,53.65
2023-01-03T04:29:05.652Z,53.76
2023-01-03T04:31:07.241Z,53.62
2023-01-03T04:33:09.200Z,53.67
2023-01-03T04:35:11.495Z,53.74
2023-01-03T04:37:13.362Z,53.75
2023-01-03T04:39:14.958Z,53.71
2023-01-03T04:41:16.793Z,53.65
2023-01-03T04:43:37.113Z,53.97
2023-01-03T04:45:39.574Z,53.69
2023-01-03T04:47:44.335Z,53.67
2023-01-03T04:49:52.199Z,53.77
2023-01-03T04:51:53.960Z,53.74
2023-01-03T04:53:56.103Z,53.59
2023-01-03T04:55:57.816Z,53.91
2023-01-03T04:57:59.401Z,53.83
2023-01-03T05:00:03.285Z,53.79
2023-01-03T05:02:05.195Z,53.83
2023-01-03T05:04:12.890Z,53.87
2023-01-03T05:06:15.145Z,54.10
2023-01-03T05:08:16.709Z,53.63
2023-01-03T05:10:18.318Z,53.84
2023-01-03T05:12:20.491Z,54.07
2023-01-03T05:14:22.242Z,53.98
2023-01-03T05:16:23.951Z,54.07
2023-01-03T05:18:28.114Z,53.79
2023-01-03T05:20:50.275Z,54.26
2023-01-03T05:23:10.217Z,53.99
2023-01-03T05:25:30.876Z,54.11
2023-01-03T05:27:33.644Z,53.72
2023-01-03T05:29:36.644Z,54.23
2023-01-03T05:31:38.604Z,53.97
2023-01-03T05:33:41.113Z,54.18
2023-01-03T05:35:48.431Z,54.14
2023-01-03T05:37:55.763Z,53.77
2023-01-03T05:39:57.639Z,53.87
2023-01-03T05:42:02.354Z,53.97
2023-01-03T05:44:08.218Z,54.06
2023-01-03T05:46:09.985Z,53.61
2023-01-03T05:48:11.545Z,53.84
2023-01-03T05:50:13.501Z,54.07
2023-01-03T05:52:15.161Z,53.86
2023-01-03T05:54:18.550Z,53.69
2023-01-03T05:56:20.223Z,53.95
2023-01-03T05:58:21.826Z,53.79
2023-01-03T06:00:23.533Z,53.99
2023-01-03T06:02:25.260Z,53.81
2023-01-03T06:04:26.735Z,53.65
2023-01-03T06:06:28.537Z,53.56
2023-01-03T06:08:30.432Z,53.72
2023-01-03T06:10:32.113Z,53.90
2023-01-03T06:12:33.972Z,53.78
2023-01-03T06:14:35.452Z,53.92
2023-01-03T06:16:56.102Z,53.99
2023-01-03T06:18:59.550Z,53.72
2023-01-03T06:21:04.143Z,53.96
2023-01-03T06:23:06.041Z,53.70
2023-01-03T06:25:07.898Z,53.98
2023-01-03T06:27:09.504Z,53.65
2023-01-03T06:29:13.932Z,53.66
2023-01-03T06:31:16.501Z,53.95
2023-01-03T06:33:18.299Z,53.77
2023-01-03T06:35:20.227Z,53.61
2023-01-03T06:37:23.162Z,54.08
2023-01-03T06:39:25.570Z,54.06
2023-01-03T06:41:27.318Z,53.72
2023-01-03T06:43:29.238Z,53.81
2023-01-03T06:45:49.502Z,53.75
2023-01-03T06:48:09.681Z,53.97
2023-01-03T06:50:30.052Z,53.53
2023-01-03T06:52:50.735Z,53.84
2023-01-03T06:54:53.716Z,53.94
2023-01-03T06:56:55.702Z,53.62
2023-01-03T06:58:57.456Z,53.75
2023-01-03T07:01:05.580Z,53.91
2023-01-03T07:03:11.327Z,53.74
2023-01-03T07:05:13.994Z,53.71
2023-01-03T07:07:15.829Z,53.62
2023-01-03T07:09:17.924Z,54.04
2023-01-03T07:11:20.684Z,53.77
2023-01-03T07:13:41.626Z,53.61
2023-01-03T07:15:45.120Z,53.81
2023-01-03T07:17:46.835Z,53.76
2023-01-03T07:19:48.396Z,53.60
2023-01-03T07:21:52.135Z,53.51
2023-01-03T07:23:55.635Z,53.80
2023-01-03T07:25:57.102Z,53.69
2023-01-03T07:28:05.409Z,54.02
2023-01-03T07:30:09.825Z,53.92
2023-01-03T07:32:14.217Z,53.84
2023-01-03T07:34:18.614Z,53.88
2023-01-03T07:36:21.797Z,54.01
2023-01-03T07:38:23.542Z,54.12
2023-01-03T07:40:25.170Z,53.96
2023-01-03T07:42:45.545Z,54.13
2023-01-03T07:44:47.587Z,54.14
2023-01-03T07:46:49.243Z,54.52
2023-01-03T07:48:52.834Z,54.47
2023-01-03T07:50:58.214Z,54.80
2023-01-03T07:53:17.031Z,54.23
2023-01-03T07:55:21.139Z,54.49
2023-01-03T07:57:22.840Z,54.63
2023-01-03T07:59:24.536Z,54.93
2023-01-03T08:01:28.547Z,54.48
2023-01-03T08:03:30.177Z,54.70
2023-01-03T08:05:40.422Z,54.90
2023-01-03T08:07:41.995Z,54.63
2023-01-03T08:10:02.406Z,55.08
2023-01-03T08:12:22.678Z,54.98
2023-01-03T08:14:26.786Z,54.96
2023-01-03T08:16:28.908Z,54.77
2023-01-03T08:18:30.777Z,55.13
2023-01-03T08:20:32.523Z,55.00
2023-01-03T08:22:34.142Z,55.11
2023-01-03T08:24:35.737Z,55.32
2023-01-03T08:26:37.821Z,55.22
2023-01-03T08:28:40.859Z,55.24
2023-01-03T08:30:48.664Z,55.31
2023-01-03T08:32:50.600Z,55.33
2023-01-03T08:34:54.347Z,55.33
2023-01-03T08:37:01.721Z,55.30
2023-01-03T08:39:09.339Z,55.54
2023-01-03T08:41:13.736Z,55.76
2023-01-03T08:43:18.475Z,55.67
2023-01-03T08:45:20.671Z,56.38
2023-01-03T08:47:22.716Z,56.04
2023-01-03T08:49:24.936Z,56.26
2023-01-03T08:51:28.379Z,56.27
2023-01-03T08:53:30.032Z,56.48
2023-01-03T08:55:33.299Z,56.12
2023-01-03T08:57:35.129Z,56.38
2023-01-03T08:59:36.707Z,56.67
2023-01-03T09:01:39.023Z,56.45
2023-01-03T09:03:41.834Z,56.24
2023-01-03T09:05:46.372Z,56.32
2023-01-03T09:07:48.025Z,56.62
2023-01-03T09:09:49.938Z,56.51
2023-01-03T09:11:51.752Z,56.72
2023-01-03T09:13:55.542Z,56.99
2023-01-03T09:16:10.050Z,56.71
2023-01-03T09:18:12.681Z,56.48
2023-01-03T09:20:16.380Z,56.84
2023-01-03T09:22:20.899Z,56.56
2023-01-03T09:24:22.600Z,56.91
2023-01-03T09:26:25.025Z,56.94
2023-01-03T09:28:29.895Z,56.96
2023-01-03T09:30:31.617Z,57.20
2023-01-03T09:32:33.407Z,57.23
2023-01-03T09:34:35.431Z,57.03
2023-01-03T09:36:38.708Z,56.90
2023-01-03T09:38:40.482Z,57.19
2023-01-03T09:40:45.344Z,57.06
2023-01-03T09:43:05.532Z,57.26
2023-01-03T09:45:08.281Z,57.12
2023-01-03T09:47:20.178Z,57.50
2023-01-03T09:49:26.338Z,57.49
2023-01-03T09:52:02.236Z,57.43
2023-01-03T09:54:23.962Z,57.45
2023-01-03T09:56:25.824Z,57.33
2023-01-03T09:58:46.743Z,57.43
2023-01-03T10:01:15.253Z,57.15
2023-01-03T10:03:50.305Z,57.59
2023-01-03T10:06:20.731Z,57.51
2023-01-03T10:08:31.034Z,57.49
2023-01-03T10:10:45.013Z,57.43
2023-01-03T10:13:05.065Z,57.69
2023-01-03T10:15:27.812Z,57.50
2023-01-03T10:18:37.545Z,57.56
2023-01-03T10:21:07.794Z,57.66
2023-01-03T10:23:11.210Z,57.24
2023-01-03T10:25:20.489Z,57.32
2023-01-03T10:27:26.646Z,57.25
2023-01-03T10:29:33.429Z,57.26
2023-01-03T10:32:16.224Z,57.41
2023-01-03T10:34:17.901Z,57.23
2023-01-03T10:36:21.834Z,57.02
2023-01-03T10:38:25.854Z,57.32
2023-01-03T10:40:49.778Z,57.22
2023-01-03T10:42:55.430Z,57.06
2023-01-03T10:45:01.787Z,57.35
2023-01-03T10:47:16.041Z,57.36
2023-01-03T10:49:30.562Z,57.17
2023-01-03T10:51:43.706Z,57.07
2023-01-03T10:53:45.563Z,57.02
2023-01-03T10:55:50.840Z,57.45
2023-01-03T10:57:52.408Z,57.15
2023-01-03T11:00:01.320Z,57.16
2023-01-03T11:02:09.259Z,57.15
2023-01-03T11:04:22.570Z,57.26
2023-01-03T11:06:24.609Z,57.20
2023-01-03T11:08:46.056Z,57.37
2023-01-03T11:10:57.497Z,57.41
2023-01-03T11:13:01.532Z,57.38
2023-01-03T11:15:37.907Z,57.26
2023-01-03T11:18:02.612Z,57.35
2023-01-03T11:20:18.184Z,57.47
2023-01-03T11:22:39.220Z,57.56
2023-01-03T11:24:50.277Z,57.44
2023-01-03T11:27:11.106Z,57.67
2023-01-03T11:29:30.215Z,57.34
2023-01-03T11:31:54.943Z,57.37
2023-01-03T11:34:23.596Z,57.60
2023-01-03T11:36:57.446Z,57.34
2023-01-03T11:39:45.907Z,57.67
2023-01-03T11:42:00.115Z,57.71
2023-01-03T11:44:32.611Z,57.65
2023-01-03T11:46:47.592Z,57.42
2023-01-03T11:49:16.389Z,57.48
2023-01-03T11:51:24.638Z,57.52
2023-01-03T11:53:35.966Z,57.65
2023-01-03T11:56:01.221Z,57.46
2023-01-03T11:58:30.416Z,57.53
2023-01-03T12:01:09.392Z,57.59
2023-01-03T12:03:48.386Z,57.45
2023-01-03T12:06:08.409Z,57.71
2023-01-03T12:08:53.407Z,57.59
2023-01-03T12:11:06.071Z,57.56
2023-01-03T12:13:12.496Z,57.46
2023-01-03T12:15:24.940Z,57.49
2023-01-03T12:17:52.991Z,57.27
2023-01-03T12:20:19.753Z,57.25
2023-01-03T12:22:35.894Z,57.35
2023-01-03T12:24:52.655Z,57.30
2023-01-03T12:27:05.705Z,56.86
2023-01-03T12:29:25.207Z,56.94
2023-01-03T12:31:56.354Z,56.76
2023-01-03T12:34:19.715Z,56.71
2023-01-03T12:36:45.471Z,56.69
2023-01-03T12:39:07.871Z,56.86
2023-01-03T12:41:34.405Z,56.76
2023-01-03T12:43:46.894Z,56.69
2023-01-03T12:46:13.110Z,56.50
2023-01-03T12:48:33.190Z,56.26
2023-01-03T12:50:34.699Z,56.51
2023-01-03T12:52:41.209Z,56.52
2023-01-03T12:55:02.451Z,56.15
2023-01-03T12:57:04.237Z,56.36
2023-01-03T12:59:15.417Z,56.46
2023-01-03T13:01:35.869Z,56.55
2023-01-03T13:03:43.278Z,56.21
2023-01-03T13:05:50.530Z,56.42
2023-01-03T13:08:04.671Z,56.10
2023-01-03T13:10:18.421Z,56.03
2023-01-03T13:12:28.024Z,55.88
2023-01-03T13:14:30.153Z,55.56
2023-01-03T13:16:35.671Z,55.85
2023-01-03T13:18:37.495Z,55.74
2023-01-03T13:20:47.872Z,55.85
2023-01-03T13:23:04.233Z,55.67
2023-01-03T13:25:27.832Z,55.41
2023-01-03T13:27:37.891Z,55.26
2023-01-03T13:29:45.907Z,55.17
2023-01-03T13:32:06.190Z,54.96
2023-01-03T13:34:19.085Z,55.18
2023-01-03T13:36:22.063Z,55.11
2023-01-03T13:38:38.190Z,55.28
2023-01-03T13:41:16.769Z,55.33
2023-01-03T13:43:26.832Z,55.22
2023-01-03T13:45:39.301Z,55.52
2023-01-03T13:47:43.655Z,55.11
2023-01-03T13:49:53.664Z,55.06
2023-01-03T13:51:57.883Z,55.43
2023-01-03T13:54:13.824Z,55.21
2023-01-03T13:56:15.280Z,55.24
2023-01-03T14:01:37.560Z,54.92
2023-01-03T14:03:58.286Z,54.99
2023-01-03T14:06:17.455Z,54.44
2023-01-03T14:08:35.514Z,54.29
2023-01-03T14:11:07.045Z,54.25
2023-01-03T14:13:27.627Z,53.82
2023-01-03T14:15:32.109Z,53.76
2023-01-03T14:17:36.383Z,54.02
2023-01-03T14:19:42.618Z,53.99
2023-01-03T14:21:55.245Z,53.66
2023-01-03T14:24:01.114Z,53.61
2023-01-03T14:26:17.685Z,53.56
2023-01-03T14:28:26.450Z,53.57
2023-01-03T14:30:32.768Z,53.70
2023-01-03T14:32:35.978Z,53.29
2023-01-03T14:34:44.352Z,53.45
2023-01-03T14:36:50.353Z,53.46
2023-01-03T14:39:01.214Z,53.36
2023-01-03T14:41:03.470Z,53.31
2023-01-03T14:43:08.295Z,53.39
2023-01-03T14:45:18.355Z,53.21
2023-01-03T14:47:20.192Z,52.96
2023-01-03T14:49:25.756Z,53.12
2023-01-03T14:51:31.494Z,52.92
2023-01-03T14:53:34.587Z,53.05
2023-01-03T14:55:39.745Z,53.01
2023-01-03T14:57:44.689Z,53.17
2023-01-03T14:59:47.452Z,52.93
2023-01-03T15:01:49.651Z,53.09
2023-01-03T15:03:55.530Z,53.07
2023-01-03T15:06:01.124Z,53.13
2023-01-03T15:08:14.738Z,52.88
2023-01-03T15:10:48.216Z,53.09
2023-01-03T15:12:56.251Z,53.02
2023-01-03T15:15:29.348Z,53.24
2023-01-03T15:17:32.569Z,52.99
2023-01-03T15:19:35.721Z,53.18
2023-01-03T15:21:38.591Z,53.21
2023-01-03T15:23:43.015Z,53.25
2023-01-03T15:25:44.632Z,53.01
2023-01-03T15:27:50.918Z,53.22
2023-01-03T15:29:52.917Z,53.09
2023-01-03T15:31:54.715Z,52.96
2023-01-03T15:34:01.737Z,53.14
2023-01-03T15:36:26.347Z,52.81
2023-01-03T15:38:34.456Z,52.96
2023-01-03T15:40:47.466Z,52.99
2023-01-03T15:43:08.333Z,52.98
2023-01-03T15:45:30.222Z,52.94
2023-01-03T15:47:31.934Z,52.99
2023-01-03T15:49:40.221Z,52.81
2023-01-03T15:51:51.705Z,53.10
2023-01-03T15:53:53.589Z,53.05
2023-01-03T15:56:19.257Z,52.81
2023-01-03T15:58:20.966Z,53.08
2023-01-03T16:00:24.345Z,53.06
2023-01-03T16:02:26.396Z,52.94
2023-01-03T16:04:31.076Z,52.87
2023-01-03T16:06:33.014Z,52.97
2023-01-03T16:08:39.850Z,52.86
2023-01-03T16:10:41.525Z,53.04
2023-01-03T16:12:43.550Z,52.93
2023-01-03T16:14:48.170Z,53.10
2023-01-03T16:16:53.846Z,53.09
2023-01-03T16:18:56.042Z,52.75
2023-01-03T16:20:57.775Z,52.91
2023-01-03T16:23:01.740Z,52.96
2023-01-03T16:25:05.467Z,53.21
2023-01-03T16:27:24.690Z,52.94
2023-01-03T16:29:26.143Z,52.99
2023-01-03T16:31:33.651Z,53.13
2023-01-03T16:33:39.088Z,53.12
2023-01-03T16:35:40.792Z,52.95
2023-01-03T16:37:43.597Z,53.22
2023-01-03T16:39:48.325Z,53.11
2023-01-03T16:42:11.365Z,53.19
2023-01-03T16:44:17.219Z,53.31
2023-01-03T16:46:23.813Z,53.27
2023-01-03T16:48:33.530Z,53.32
2023-01-03T16:50:40.047Z,53.42
2023-01-03T16:52:49.179Z,53.44
2023-01-03T16:54:51.378Z,53.45
2023-01-03T16:56:53.113Z,53.63
2023-01-03T16:58:54.625Z,53.41
2023-01-03T17:00:56.343Z,53.62
2023-01-03T17:02:59.922Z,53.34
2023-01-03T17:05:04.858Z,53.71
2023-01-03T17:07:09.736Z,53.53
2023-01-03T17:09:26.696Z,53.70
2023-01-03T17:11:28.992Z,53.81
2023-01-03T17:13:38.001Z,53.64
2023-01-03T17:15:41.256Z,53.84
2023-01-03T17:17:42.849Z,53.61
2023-01-03T17:20:04.601Z,53.94
2023-01-03T17:22:07.335Z,53.79
2023-01-03T17:24:16.549Z,54.33
2023-01-03T17:26:21.439Z,53.79
2023-01-03T17:28:23.298Z,53.80
2023-01-03T17:30:27.948Z,54.05
2023-01-03T17:32:30.546Z,53.93
2023-01-03T17:34:36.763Z,54.00
2023-01-03T17:36:45.447Z,54.08
2023-01-03T17:38:53.031Z,53.88
2023-01-03T17:41:02.153Z,53.89
2023-01-03T17:43:06.517Z,54.01
2023-01-03T17:45:30.434Z,54.07
2023-01-03T17:47:51.866Z,53.85
2023-01-03T17:49:53.734Z,54.18
2023-01-03T17:51:59.560Z,54.19
2023-01-03T17:54:01.770Z,54.33
2023-01-03T17:56:03.497Z,54.27
2023-01-03T17:58:05.700Z,54.22
2023-01-03T18:00:28.588Z,54.21
2023-01-03T18:02:31.513Z,54.31
2023-01-03T18:05:05.369Z,54.34
2023-01-03T18:07:04.113Z,54.38
2023-01-03T18:09:13.684Z,54.31
2023-01-03T18:11:18.842Z,54.39
2023-01-03T18:13:22.559Z,54.46
2023-01-03T18:15:24.184Z,54.84
2023-01-03T18:17:29.901Z,54.42
2023-01-03T18:19:33.911Z,54.41
2023-01-03T18:21:38.957Z,54.28
2023-01-03T18:23:40.561Z,54.89
2023-01-03T18:25:42.151Z,54.41
2023-01-03T18:27:55.812Z,54.78
2023-01-03T18:29:58.366Z,54.88
2023-01-03T18:32:01.948Z,54.69
2023-01-03T18:34:04.487Z,54.77
2023-01-03T18:36:06.939Z,54.52
2023-01-03T18:38:31.098Z,54.94
2023-01-03T18:40:32.883Z,54.68
2023-01-03T18:42:53.951Z,54.93
2023-01-03T18:44:55.636Z,54.71
2023-01-03T18:46:57.751Z,54.45
2023-01-03T18:48:59.525Z,55.00
2023-01-03T18:51:01.295Z,54.67
2023-01-03T18:53:04.541Z,54.77
2023-01-03T18:55:14.797Z,54.85
2023-01-03T18:57:22.081Z,54.79
2023-01-03T18:59:32.180Z,54.93
2023-01-03T19:01:34.161Z,54.83
2023-01-03T19:03:40.234Z,54.92
2023-01-03T19:05:42.026Z,54.99
2023-01-03T19:07:45.500Z,54.73
2023-01-03T19:09:47.285Z,55.01
2023-01-03T19:11:49.474Z,54.82
2023-01-03T19:13:55.221Z,54.90
2023-01-03T19:16:00.168Z,54.99
2023-01-03T19:18:04.075Z,54.94
2023-01-03T19:20:06.943Z,54.88
2023-01-03T19:22:20.610Z,55.05
2023-01-03T19:24:40.551Z,54.97
2023-01-03T19:26:51.798Z,54.98
2023-01-03T19:28:56.899Z,55.05
2023-01-03T19:30:58.773Z,54.93
2023-01-03T19:33:12.151Z,54.89
2023-01-03T19:35:15.832Z,55.01
2023-01-03T19:37:26.433Z,54.96
2023-01-03T19:39:33.663Z,55.11
2023-01-03T19:42:04.538Z,55.12
2023-01-03T19:44:06.181Z,54.97
2023-01-03T19:46:18.412Z,54.94
2023-01-03T19:48:23.219Z,54.96
2023-01-03T19:50:30.831Z,55.01
2023-01-03T19:52:32.412Z,55.16
2023-01-03T19:54:34.137Z,55.05
2023-01-03T19:56:36.039Z,54.86
2023-01-03T19:58:42.075Z,55.02
2023-01-03T20:00:47.501Z,55.00
2023-01-03T20:03:00.915Z,54.90
2023-01-03T20:05:03.530Z,54.81
2023-01-03T20:07:13.472Z,55.03
2023-01-03T20:09:15.507Z,54.93
2023-01-03T20:11:22.783Z,54.80
2023-01-03T20:13:26.815Z,54.88
2023-01-03T20:15:42.537Z,54.84
2023-01-03T20:17:44.229Z,54.82
2023-01-03T20:19:45.987Z,55.01
2023-01-03T20:21:49.871Z,54.97
2023-01-03T20:23:54.510Z,55.05
2023-01-03T20:25:56.207Z,54.99
2023-01-03T20:27:59.096Z,55.07
2023-01-03T20:30:00.811Z,54.71
2023-01-03T20:32:02.575Z,55.06
2023-01-03T20:34:06.694Z,55.07
2023-01-03T20:36:22.566Z,54.78
2023-01-03T20:38:26.789Z,55.04
2023-01-03T20:40:28.822Z,54.79
2023-01-03T20:42:30.931Z,55.01
2023-01-03T20:44:32.556Z,54.90
2023-01-03T20:46:34.232Z,54.97
2023-01-03T20:48:35.875Z,54.78
2023-01-03T20:50:40.658Z,54.86
2023-01-03T20:52:51.520Z,54.79
2023-01-03T20:54:53.571Z,54.99
2023-01-03T20:56:55.316Z,54.83
2023-01-03T20:58:56.839Z,54.74
2023-01-03T21:01:04.874Z,54.82
2023-01-03T21:03:13.375Z,54.88
2023-01-03T21:05:17.579Z,54.69
2023-01-03T21:07:50.400Z,54.73
2023-01-03T21:09:54.721Z,54.79
2023-01-03T21:11:56.542Z,54.86
2023-01-03T21:14:00.601Z,54.67
2023-01-03T21:16:02.659Z,55.10
2023-01-03T21:18:06.232Z,54.65
2023-01-03T21:21:40.373Z,54.59
2023-01-03T21:23:01.160Z,54.62
2023-01-03T21:25:03.054Z,54.73
2023-01-03T21:27:04.567Z,54.75
2023-01-03T21:29:12.313Z,54.71
2023-01-03T21:31:20.136Z,54.72
2023-01-03T21:33:22.175Z,54.99
2023-01-03T21:35:28.885Z,54.83
2023-01-03T21:37:30.447Z,54.56
2023-01-03T21:39:33.505Z,54.67
2023-01-03T21:41:56.168Z,54.79
2023-01-03T21:44:00.959Z,54.99
2023-01-03T21:46:12.152Z,54.58
2023-01-03T21:48:18.381Z,54.87
2023-01-03T21:50:20.935Z,54.50
2023-01-03T21:52:22.498Z,54.56
2023-01-03T21:54:26.267Z,54.51
2023-01-03T21:56:27.957Z,54.52
2023-01-03T21:58:32.447Z,54.80
2023-01-03T22:00:36.923Z,54.72
2023-01-03T22:03:00.941Z,54.75
2023-01-03T22:05:04.304Z,54.46
2023-01-03T22:07:08.400Z,54.24
2023-01-03T22:09:32.642Z,54.75
2023-01-03T22:11:34.838Z,54.44
2023-01-03T22:13:38.942Z,54.53
2023-01-03T22:15:40.689Z,54.56
2023-01-03T22:17:45.124Z,54.50
2023-01-03T22:19:47.019Z,54.50
2023-01-03T22:21:48.724Z,54.49
2023-01-03T22:23:50.298Z,54.43
2023-01-03T22:25:51.879Z,54.87
2023-01-03T22:27:57.975Z,54.36
2023-01-03T22:30:03.814Z,54.64
2023-01-03T22:32:05.543Z,54.65
2023-01-03T22:34:07.220Z,54.74
2023-01-03T22:36:09.411Z,54.39
2023-01-03T22:38:10.856Z,54.62
2023-01-03T22:40:16.871Z,54.15
2023-01-03T22:42:19.892Z,54.42
2023-01-03T22:44:21.490Z,54.29
2023-01-03T22:46:26.268Z,54.25
2023-01-03T22:48:28.064Z,54.17
2023-01-03T22:50:29.545Z,54.28
2023-01-03T22:52:31.611Z,54.20
2023-01-03T22:54:35.233Z,54.30
2023-01-03T22:56:36.846Z,54.25
2023-01-03T22:58:40.482Z,54.01
2023-01-03T23:00:42.552Z,54.38
2023-01-03T23:02:44.370Z,54.15
2023-01-03T23:04:50.827Z,54.03
2023-01-03T23:06:53.969Z,54.22
2023-01-03T23:08:56.358Z,53.84
2023-01-03T23:11:34.377Z,54.35
2023-01-03T23:13:36.350Z,54.08
2023-01-03T23:15:41.291Z,54.32
2023-01-03T23:17:58.202Z,54.00
2023-01-03T23:20:02.159Z,53.94
2023-01-03T23:22:09.441Z,53.92
2023-01-03T23:24:16.130Z,54.53
2023-01-03T23:26:18.074Z,54.50
2023-01-03T23:28:25.002Z,54.35
2023-01-03T23:30:30.266Z,54.11
2023-01-03T23:32:32.702Z,54.67
2023-01-03T23:34:34.329Z,54.51
2023-01-03T23:36:36.037Z,54.64
2023-01-03T23:38:37.572Z,54.40
2023-01-03T23:40:41.065Z,54.42
2023-01-03T23:42:42.799Z,54.77
2023-01-03T23:44:44.560Z,54.55
2023-01-03T23:46:46.454Z,54.61
2023-01-03T23:48:48.951Z,54.45
2023-01-03T23:50:50.659Z,54.69
2023-01-03T23:52:53.426Z,54.56
2023-01-03T23:55:03.630Z,54.57
2023-01-03T23:57:08.523Z,54.84
2023-01-03T23:59:12.136Z,54.45
